Time;durP1;ratioP1;P1;durP2;ratioP2;P2;SDS_P1;SDS_P2;PMS_P1;PMS_P2;Temp;Humidity;BMP_temperature;BMP_pressure;BME280_temperature;BME280_humidity;BME280_pressure;Samples;Min_cycle;Max_cycle;Signal;HPM_P1;HPM_P2
2021/12/08 00:01:00;;;;;;;26.15;7.47;;;;;;;-0.99;80.39;92481.53;4839970;29;20045;-62
2021/12/08 00:03:30;;;;;;;13.13;4.70;;;;;;;-0.95;79.67;92474.25;4839184;29;20532;-62
2021/12/08 00:05:58;;;;;;;12.27;5.10;;;;;;;-1.04;80.09;92468.47;4839960;29;20155;-63
2021/12/08 00:08:28;;;;;;;8.07;4.47;;;;;;;-1.02;80.03;92461.53;4838941;29;20880;-62
2021/12/08 00:13:31;;;;;;;24.45;7.95;;;;;;;-1.07;81.40;92459.19;4838890;29;20096;-63
2021/12/08 00:16:01;;;;;;;29.90;9.53;;;;;;;-0.93;81.63;92449.66;4839974;29;20289;-62
2021/12/08 00:18:32;;;;;;;26.80;8.40;;;;;;;-1.01;82.94;92452.31;4838666;29;20046;-62
2021/12/08 00:21:02;;;;;;;24.35;8.38;;;;;;;-1.04;83.94;92446.91;4843253;29;20077;-60
2021/12/08 00:23:29;;;;;;;25.75;8.07;;;;;;;-1.08;84.87;92440.75;4859630;29;20046;-62
2021/12/08 00:25:57;;;;;;;20.75;7.07;;;;;;;-1.12;85.07;92443.41;4845788;29;20460;-62
2021/12/08 00:28:25;;;;;;;13.73;5.83;;;;;;;-1.19;86.06;92424.53;4844973;29;21730;-62
2021/12/08 00:30:58;;;;;;;21.55;7.72;;;;;;;-1.13;86.84;92424.94;4845775;29;20065;-62
2021/12/08 00:33:30;;;;;;;16.15;7.03;;;;;;;-1.10;87.27;92422.28;4844855;29;21624;-62
2021/12/08 00:36:00;;;;;;;13.68;5.78;;;;;;;-1.04;87.12;92425.38;4845757;29;20109;-62
2021/12/08 00:38:27;;;;;;;12.93;5.75;;;;;;;-1.02;87.43;92431.16;4844528;29;20128;-62
2021/12/08 00:40:54;;;;;;;10.87;5.50;;;;;;;-0.93;86.94;92425.41;4845737;29;20072;-62
2021/12/08 00:43:22;;;;;;;16.40;6.93;;;;;;;-0.93;87.58;92423.47;4845188;29;20048;-62
2021/12/08 00:45:50;;;;;;;17.33;8.20;;;;;;;-0.90;88.33;92411.97;4845410;29;20072;-63
2021/12/08 00:48:18;;;;;;;12.18;5.53;;;;;;;-0.81;88.90;92420.44;4844957;29;20086;-62
2021/12/08 00:50:45;;;;;;;11.38;5.25;;;;;;;-0.65;88.58;92422.78;4845353;29;20056;-62
2021/12/08 00:53:12;;;;;;;15.23;6.10;;;;;;;-0.61;89.21;92415.50;4845395;29;20050;-62
2021/12/08 00:55:39;;;;;;;19.45;8.18;;;;;;;-0.60;89.32;92416.28;4844208;29;20060;-62
2021/12/08 00:58:06;;;;;;;16.52;7.28;;;;;;;-0.58;90.40;92411.28;4844861;29;20042;-62
2021/12/08 01:00:40;;;;;;;13.55;6.10;;;;;;;-0.56;91.04;92403.59;4845325;29;20069;-62
2021/12/08 01:03:09;;;;;;;12.13;4.95;;;;;;;-0.46;91.21;92412.84;4843722;29;20198;-61
2021/12/08 01:05:41;;;;;;;12.10;5.20;;;;;;;-0.47;91.14;92422.84;4828863;29;20064;-62
2021/12/08 01:08:08;;;;;;;10.68;5.00;;;;;;;-0.46;91.45;92416.31;4827910;29;20555;-62
2021/12/08 01:10:36;;;;;;;8.93;4.47;;;;;;;-0.50;92.04;92422.84;4809039;29;20416;-62
2021/12/08 01:13:05;;;;;;;13.15;5.95;;;;;;;-0.48;92.31;92415.16;4808536;29;20047;-62
2021/12/08 01:15:33;;;;;;;14.25;5.63;;;;;;;-0.47;92.31;92422.06;4809118;29;20050;-62
2021/12/08 01:18:00;;;;;;;12.93;6.17;;;;;;;-0.49;92.68;92421.69;4807256;29;20065;-61
2021/12/08 01:20:27;;;;;;;12.43;5.57;;;;;;;-0.45;93.32;92428.63;4809025;29;20046;-62
2021/12/08 01:22:54;;;;;;;15.13;6.78;;;;;;;-0.44;93.51;92426.72;4808781;29;20042;-62
2021/12/08 01:25:21;;;;;;;15.85;7.20;;;;;;;-0.42;93.97;92419.00;4808506;29;20047;-62
2021/12/08 01:27:48;;;;;;;16.13;6.25;;;;;;;-0.34;93.92;92417.06;4808847;29;20488;-62
2021/12/08 01:30:15;;;;;;;14.73;6.40;;;;;;;-0.28;94.06;92415.53;4808436;29;20065;-62
2021/12/08 01:32:41;;;;;;;16.02;6.70;;;;;;;-0.21;94.02;92405.53;4805910;29;20046;-62
2021/12/08 01:35:10;;;;;;;14.98;6.90;;;;;;;-0.18;94.25;92403.22;4805499;29;20051;-62
2021/12/08 01:37:38;;;;;;;16.67;7.00;;;;;;;-0.13;94.25;92400.16;4806286;29;20087;-62
2021/12/08 01:40:09;;;;;;;17.90;7.50;;;;;;;-0.11;94.84;92414.78;4819001;29;20062;-62
2021/12/08 01:42:43;;;;;;;11.53;6.00;;;;;;;-0.04;94.95;92406.72;4805844;29;20043;-63
2021/12/08 01:47:58;;;;;;;16.30;6.85;;;;;;;0.08;95.20;92385.88;4805852;29;20074;-62
2021/12/08 01:50:25;;;;;;;26.83;10.23;;;;;;;0.14;95.25;92385.13;4837436;29;20050;-62
2021/12/08 01:52:52;;;;;;;15.85;7.53;;;;;;;0.09;94.83;92387.44;4842139;29;20046;-63
2021/12/08 01:55:19;;;;;;;15.17;8.07;;;;;;;0.13;94.85;92383.59;4841541;29;20054;-63
2021/12/08 01:57:47;;;;;;;15.80;7.22;;;;;;;0.17;95.05;92386.28;4841649;29;20042;-62
2021/12/08 02:00:27;;;;;;;13.95;6.75;;;;;;;0.18;95.12;92394.00;4855648;29;20426;-62
2021/12/08 02:02:55;;;;;;;11.57;5.53;;;;;;;0.25;94.50;92392.44;4840523;29;20072;-62
2021/12/08 02:05:21;;;;;;;11.65;6.22;;;;;;;0.24;94.05;92390.88;4841657;29;20081;-62
2021/12/08 02:07:50;;;;;;;12.93;6.40;;;;;;;0.18;94.08;92387.81;4812807;29;20111;-62
2021/12/08 02:10:17;;;;;;;13.60;6.10;;;;;;;0.25;94.77;92385.13;4815530;29;20055;-62
2021/12/08 02:12:46;;;;;;;10.73;5.50;;;;;;;0.28;94.79;92384.34;4818986;29;20053;-62
2021/12/08 02:15:16;;;;;;;11.30;5.20;;;;;;;0.33;94.35;92386.63;4804292;29;20142;-62
2021/12/08 02:17:46;;;;;;;12.77;6.35;;;;;;;0.33;94.61;92383.94;4805133;29;20051;-63
2021/12/08 02:20:15;;;;;;;11.03;5.80;;;;;;;0.37;94.47;92373.91;4804835;29;20054;-62
2021/12/08 02:22:42;;;;;;;10.57;5.43;;;;;;;0.33;94.61;92388.56;4804979;29;20047;-62
2021/12/08 02:25:19;;;;;;;20.60;10.40;;;;;;;0.42;94.57;92375.44;4804605;29;20062;-62
2021/12/08 02:27:46;;;;;;;15.00;7.70;;;;;;;0.45;94.18;92387.41;4805131;29;20051;-62
2021/12/08 02:30:44;;;;;;;11.68;6.07;;;;;;;0.42;94.61;92374.66;4804618;29;20180;-62
2021/12/08 02:47:15;;;;;;;11.20;5.60;;;;;;;0.43;95.33;92374.28;4804230;29;20050;-62
2021/12/08 02:49:42;;;;;;;11.50;6.03;;;;;;;0.47;95.70;92374.28;4803629;29;20069;-62
2021/12/08 02:52:12;;;;;;;11.43;5.28;;;;;;;0.42;95.71;92363.88;4804166;29;20047;-62
2021/12/08 02:54:45;;;;;;;10.73;5.38;;;;;;;0.38;95.45;92371.97;4804680;29;20726;-63
2021/12/08 02:57:14;;;;;;;16.38;8.60;;;;;;;0.40;95.31;92377.75;4803811;29;20059;-62
2021/12/08 02:59:45;;;;;;;13.07;7.63;;;;;;;0.33;95.67;92361.59;4804650;29;20066;-62
2021/12/08 03:02:13;;;;;;;12.63;6.55;;;;;;;0.34;95.37;92376.59;4803884;29;20074;-63
2021/12/08 03:04:40;;;;;;;12.70;6.43;;;;;;;0.37;95.39;92362.34;4804694;29;20384;-62
2021/12/08 03:07:07;;;;;;;12.55;7.03;;;;;;;0.36;95.54;92364.28;4837311;29;20491;-62
2021/12/08 03:09:35;;;;;;;10.25;5.95;;;;;;;0.33;95.30;92373.16;4840687;29;20046;-62
2021/12/08 03:12:04;;;;;;;9.87;5.33;;;;;;;0.39;95.38;92377.00;4840169;29;20061;-62
2021/12/08 03:14:31;;;;;;;10.77;5.63;;;;;;;0.39;95.03;92370.81;4823710;29;20053;-62
2021/12/08 03:17:03;;;;;;;10.18;5.57;;;;;;;0.45;94.83;92371.97;4804300;29;20051;-62
2021/12/08 03:19:31;;;;;;;9.57;5.15;;;;;;;0.45;94.34;92371.22;4803422;29;20514;-62
2021/12/08 03:21:58;;;;;;;10.02;5.60;;;;;;;0.42;94.42;92371.97;4804408;29;20058;-62
2021/12/08 03:24:35;;;;;;;14.13;7.47;;;;;;;0.54;94.49;92366.94;4802004;29;20042;-63
2021/12/08 03:32:15;;;;;;;9.07;4.60;;;;;;;0.31;94.34;92380.09;4803619;29;20078;-62
2021/12/08 03:34:51;;;;;;;9.95;5.07;;;;;;;0.26;95.02;92377.78;4803917;29;20497;-62
2021/12/08 03:37:25;;;;;;;8.00;4.37;;;;;;;0.23;95.26;92382.03;4803722;29;20081;-62
2021/12/08 03:39:52;;;;;;;8.25;4.10;;;;;;;0.23;94.95;92376.63;4803845;29;20063;-62
2021/12/08 03:42:23;;;;;;;8.07;4.25;;;;;;;0.21;95.33;92378.19;4803270;29;20063;-62
2021/12/08 03:44:53;;;;;;;7.60;3.85;;;;;;;0.16;95.44;92373.94;4803807;29;20055;-62
2021/12/08 03:47:26;;;;;;;7.10;4.03;;;;;;;0.16;95.33;92374.72;4803529;29;20050;-62
2021/12/08 03:49:54;;;;;;;6.70;3.97;;;;;;;0.16;95.74;92369.34;4814467;29;20052;-62
2021/12/08 03:52:21;;;;;;;6.53;3.13;;;;;;;0.15;95.68;92372.41;4839494;29;20048;-62
2021/12/08 03:54:48;;;;;;;6.65;3.83;;;;;;;0.24;95.13;92374.69;4838271;29;20232;-62
2021/12/08 03:57:14;;;;;;;7.47;3.70;;;;;;;0.24;94.99;92364.66;4839185;29;20399;-62
2021/12/08 03:59:41;;;;;;;7.78;4.22;;;;;;;0.24;94.64;92370.06;4839894;29;20523;-62
2021/12/08 04:02:08;;;;;;;8.90;4.70;;;;;;;0.20;94.96;92372.00;4839454;29;20062;-63
2021/12/08 04:04:43;;;;;;;17.85;9.40;;;;;;;0.15;95.25;92375.88;4839893;29;20061;-62
2021/12/08 04:07:13;;;;;;;16.17;8.65;;;;;;;0.15;94.93;92373.16;4838226;29;20054;-62
2021/12/08 04:09:43;;;;;;;13.77;8.48;;;;;;;0.16;95.11;92373.94;4839720;29;20065;-62
2021/12/08 04:12:13;;;;;;;35.65;18.77;;;;;;;0.29;95.21;92367.00;4838128;29;20050;-62
2021/12/08 04:14:46;;;;;;;14.93;7.80;;;;;;;0.32;94.70;92376.22;4838601;29;20057;-62
2021/12/08 04:17:18;;;;;;;12.20;7.45;;;;;;;0.30;94.43;92362.34;4839220;29;20061;-62
2021/12/08 04:19:47;;;;;;;9.40;5.35;;;;;;;0.37;94.00;92367.75;4811802;29;20463;-62
2021/12/08 04:22:19;;;;;;;7.13;3.97;;;;;;;0.30;94.10;92360.44;4802650;29;20073;-62
2021/12/08 04:24:50;;;;;;;7.63;4.38;;;;;;;0.25;94.34;92362.75;4803464;29;20069;-62
2021/12/08 04:27:21;;;;;;;6.97;4.10;;;;;;;0.30;94.45;92362.34;4802834;29;20062;-62
2021/12/08 04:29:49;;;;;;;7.65;4.30;;;;;;;0.36;94.11;92360.78;4803550;29;20063;-62
2021/12/08 04:32:18;;;;;;;9.27;4.18;;;;;;;0.33;93.96;92359.66;4802957;29;20051;-62
2021/12/08 04:34:50;;;;;;;8.05;4.50;;;;;;;0.41;94.12;92360.41;4803114;29;20570;-62
2021/12/08 04:37:27;;;;;;;8.75;4.57;;;;;;;0.49;93.40;92351.13;4804517;29;20050;-62
2021/12/08 04:43:28;;;;;;;7.50;3.90;;;;;;;0.48;92.96;92346.88;4801800;29;20802;-61
2021/12/08 04:46:23;;;;;;;8.00;4.10;;;;;;;0.45;93.71;92350.38;4803152;29;20074;-62
2021/12/08 05:07:33;;;;;;;10.50;6.10;;;;;;;0.54;93.39;92358.06;4839460;29;20062;-62
2021/12/08 05:10:08;;;;;;;11.73;6.10;;;;;;;0.47;93.69;92348.06;4842469;29;20507;-61
2021/12/08 05:12:36;;;;;;;13.40;7.03;;;;;;;0.54;93.44;92344.56;4841520;29;20045;-61
2021/12/08 05:15:12;;;;;;;15.85;8.98;;;;;;;0.59;93.08;92349.56;4842184;29;20073;-61
2021/12/08 05:17:47;;;;;;;20.25;10.70;;;;;;;0.52;93.51;92339.53;4842273;29;20403;-62
2021/12/08 05:20:23;;;;;;;19.00;9.60;;;;;;;0.61;93.31;92333.75;4841849;29;20129;-61
2021/12/08 05:22:54;;;;;;;19.27;8.80;;;;;;;0.64;93.30;92324.09;4842756;29;20045;-62
2021/12/08 05:25:24;;;;;;;12.73;7.00;;;;;;;0.67;92.82;92326.78;4842380;29;20056;-62
2021/12/08 05:27:55;;;;;;;13.35;5.97;;;;;;;0.71;92.97;92338.34;4841128;29;20058;-62
2021/12/08 05:30:34;;;;;;;11.73;6.13;;;;;;;0.62;93.20;92346.06;4842074;29;20041;-62
2021/12/08 05:33:03;;;;;;;11.23;6.00;;;;;;;0.55;93.33;92343.41;4842147;29;20049;-61
2021/12/08 05:35:31;;;;;;;13.00;6.25;;;;;;;0.56;92.84;92355.75;4842240;29;20042;-62
2021/12/08 05:37:58;;;;;;;12.07;5.80;;;;;;;0.64;92.83;92365.34;4842261;29;20379;-62
2021/12/08 05:40:39;;;;;;;10.90;5.95;;;;;;;0.70;92.96;92354.91;4840254;29;20046;-62
2021/12/08 05:43:09;;;;;;;12.32;5.78;;;;;;;0.69;92.70;92361.50;4841678;29;20061;-61
2021/12/08 05:45:37;;;;;;;11.50;5.50;;;;;;;0.72;92.61;92361.47;4842059;29;20042;-62
2021/12/08 05:48:06;;;;;;;10.40;5.53;;;;;;;0.74;92.18;92361.84;4841266;29;20050;-61
2021/12/08 05:51:06;;;;;;;13.18;6.75;;;;;;;0.76;92.26;92359.53;4841721;29;20050;-62
2021/12/08 05:53:35;;;;;;;11.20;5.95;;;;;;;0.76;92.28;92354.13;4830101;29;20627;-62
2021/12/08 05:56:05;;;;;;;13.25;5.68;;;;;;;0.79;91.80;92361.44;4822610;29;20073;-61
2021/12/08 05:58:34;;;;;;;11.17;5.53;;;;;;;0.76;91.94;92353.34;4823218;29;20047;-62
2021/12/08 06:01:13;;;;;;;30.85;9.07;;;;;;;0.71;92.25;92351.84;4815828;29;20057;-61
2021/12/08 06:03:41;;;;;;;32.47;10.32;;;;;;;0.62;92.49;92351.47;4805316;29;20594;-61
2021/12/08 06:06:09;;;;;;;18.13;7.10;;;;;;;0.65;92.51;92349.94;4823059;29;20054;-61
2021/12/08 06:08:37;;;;;;;14.77;6.72;;;;;;;0.74;92.10;92345.63;4824892;29;20041;-62
2021/12/08 06:11:08;;;;;;;15.30;6.70;;;;;;;0.77;91.88;92341.41;4841147;29;20056;-61
2021/12/08 06:13:37;;;;;;;12.32;6.70;;;;;;;0.82;91.94;92345.63;4841747;29;20050;-61
2021/12/08 06:16:05;;;;;;;16.05;7.25;;;;;;;0.84;91.71;92346.00;4854928;29;20057;-62
2021/12/08 06:18:38;;;;;;;14.65;6.63;;;;;;;0.81;91.66;92346.81;4824722;29;20041;-62
2021/12/08 06:21:12;;;;;;;17.15;8.00;;;;;;;0.82;92.00;92343.69;4841242;29;20484;-61
2021/12/08 06:23:41;;;;;;;42.63;19.90;;;;;;;0.77;91.56;92339.47;4805370;29;20055;-62
2021/12/08 06:26:10;;;;;;;26.02;13.00;;;;;;;0.59;92.34;92352.28;4804467;29;20437;-62
2021/12/08 06:28:37;;;;;;;28.10;11.27;;;;;;;0.56;92.78;92361.94;4804855;29;20050;-61
2021/12/08 06:31:06;;;;;;;15.45;7.60;;;;;;;0.55;93.34;92356.91;4804222;29;20474;-61
2021/12/08 06:33:33;;;;;;;12.40;5.85;;;;;;;0.56;92.89;92359.22;4804719;29;20397;-61
2021/12/08 06:36:07;;;;;;;16.40;7.10;;;;;;;0.58;93.32;92362.31;4804273;29;20054;-60
2021/12/08 06:38:34;;;;;;;9.73;4.65;;;;;;;0.61;92.60;92359.97;4804869;29;20497;-62
2021/12/08 06:41:06;;;;;;;13.70;5.20;;;;;;;0.54;93.25;92358.84;4804195;29;20059;-61
2021/12/08 06:43:40;;;;;;;15.63;6.25;;;;;;;0.50;93.27;92354.59;4804631;29;20047;-60
2021/12/08 06:46:07;;;;;;;17.58;6.95;;;;;;;0.29;94.55;92358.91;4803900;29;20059;-60
2021/12/08 06:48:42;;;;;;;16.47;6.07;;;;;;;0.26;95.39;92351.56;4818170;29;20051;-60
2021/12/08 06:51:21;;;;;;;13.48;5.70;;;;;;;0.32;94.79;92352.72;4833033;29;20050;-60
2021/12/08 06:53:52;;;;;;;12.95;4.90;;;;;;;0.20;95.66;92361.22;4840841;29;20058;-60
2021/12/08 06:56:27;;;;;;;11.50;4.70;;;;;;;0.20;95.34;92353.13;4840135;29;20076;-60
2021/12/08 06:58:58;;;;;;;22.55;8.18;;;;;;;0.20;95.87;92336.94;4827490;29;20055;-60
2021/12/08 07:01:40;;;;;;;11.47;5.60;;;;;;;0.25;95.56;92328.44;4819911;29;20085;-60
2021/12/08 07:07:21;;;;;;;26.13;12.23;;;;;;;0.17;95.54;92332.31;4833053;29;20054;-60
2021/12/08 07:09:51;;;;;;;17.25;8.60;;;;;;;0.12;95.77;92330.00;4809059;29;21760;-62
2021/12/08 07:12:21;;;;;;;25.48;13.70;;;;;;;0.11;95.66;92334.66;4803391;29;20513;-61
2021/12/08 07:14:52;;;;;;;12.43;5.63;;;;;;;0.24;95.40;92337.69;4804017;29;20053;-61
2021/12/08 07:17:22;;;;;;;11.07;4.93;;;;;;;0.35;95.04;92335.75;4803299;29;20461;-61
2021/12/08 07:20:13;;;;;;;11.55;5.97;;;;;;;0.39;94.67;92328.41;4803838;29;20042;-61
2021/12/08 07:22:45;;;;;;;9.98;4.40;;;;;;;0.40;94.25;92348.06;4803293;29;20072;-61
2021/12/08 07:25:14;;;;;;;11.88;4.90;;;;;;;0.55;94.34;92344.19;4803719;29;20073;-61
2021/12/08 07:27:41;;;;;;;17.03;4.30;;;;;;;0.56;93.38;92339.53;4803605;29;20046;-61
2021/12/08 07:30:17;;;;;;;10.35;3.83;;;;;;;0.62;93.29;92346.06;4802662;29;20051;-61
2021/12/08 07:32:43;;;;;;;19.70;8.77;;;;;;;0.61;93.20;92339.16;4803983;29;20047;-61
2021/12/08 07:35:37;;;;;;;19.35;9.40;;;;;;;0.61;92.94;92344.56;4803194;29;20057;-61
2021/12/08 07:38:08;;;;;;;16.83;7.47;;;;;;;0.65;92.95;92345.31;4803349;29;20172;-61
2021/12/08 07:40:43;;;;;;;17.33;7.20;;;;;;;0.75;92.37;92333.69;4817738;29;20065;-61
2021/12/08 07:43:16;;;;;;;15.75;8.65;;;;;;;0.72;92.44;92339.88;4803330;29;20085;-61
2021/12/08 07:46:11;;;;;;;12.52;5.88;;;;;;;0.75;92.20;92341.78;4803603;29;20043;-61
2021/12/08 07:48:43;;;;;;;9.98;4.85;;;;;;;0.82;91.52;92364.53;4800162;29;20047;-61
2021/12/08 07:51:16;;;;;;;7.53;3.90;;;;;;;0.75;91.71;92366.09;4832990;29;20050;-61
2021/12/08 07:53:43;;;;;;;8.53;3.77;;;;;;;0.70;91.99;92369.19;4839971;29;20048;-61
2021/12/08 07:56:12;;;;;;;7.75;3.70;;;;;;;0.72;91.99;92358.75;4837045;29;20050;-61
2021/12/08 07:58:42;;;;;;;8.77;3.80;;;;;;;0.84;91.83;92370.31;4833380;29;20046;-62
2021/12/08 08:01:17;;;;;;;10.07;5.15;;;;;;;0.78;91.64;92359.91;4839175;29;20080;-61
2021/12/08 08:03:45;;;;;;;9.55;5.18;;;;;;;0.56;92.18;92350.34;4839824;29;20167;-61
2021/12/08 08:06:18;;;;;;;8.27;4.40;;;;;;;0.48;92.89;92356.91;4839158;29;20061;-61
2021/12/08 08:08:45;;;;;;;14.93;6.55;;;;;;;0.48;92.91;92352.28;4840054;29;20052;-61
2021/12/08 08:11:26;;;;;;;15.27;5.65;;;;;;;0.68;92.75;92333.72;4839439;29;20054;-61
2021/12/08 08:13:54;;;;;;;18.98;6.63;;;;;;;0.74;92.38;92334.84;4839527;29;20528;-61
2021/12/08 08:16:26;;;;;;;16.30;5.68;;;;;;;0.79;92.20;92330.97;4839224;29;20048;-61
2021/12/08 08:19:01;;;;;;;12.30;4.47;;;;;;;0.69;92.53;92340.66;4839596;29;20072;-61
2021/12/08 08:21:32;;;;;;;7.45;4.20;;;;;;;0.75;92.32;92365.34;4839102;29;21710;-61
2021/12/08 08:24:00;;;;;;;8.82;4.03;;;;;;;0.67;92.42;92371.91;4839923;29;20041;-62
2021/12/08 08:26:29;;;;;;;15.55;4.72;;;;;;;0.73;92.74;92367.66;4838795;29;20403;-61
2021/12/08 08:28:57;;;;;;;16.30;5.85;;;;;;;0.79;92.13;92364.16;4839619;29;20076;-61
2021/12/08 08:31:32;;;;;;;14.97;6.30;;;;;;;0.66;92.59;92365.72;4839274;29;20072;-61
2021/12/08 08:34:00;;;;;;;11.35;5.80;;;;;;;0.58;93.24;92365.00;4839910;29;20269;-61
2021/12/08 08:36:31;;;;;;;15.60;7.38;;;;;;;0.84;92.72;92362.97;4838757;29;20813;-61
2021/12/08 08:39:13;;;;;;;11.27;5.43;;;;;;;0.71;92.46;92364.56;4839746;29;20042;-61
2021/12/08 08:41:59;;;;;;;13.18;5.88;;;;;;;0.64;92.99;92375.38;4840533;29;20073;-61
2021/12/08 08:44:38;;;;;;;11.27;6.20;;;;;;;0.66;93.17;92378.47;4842632;29;21826;-61
2021/12/08 08:47:11;;;;;;;15.45;6.93;;;;;;;0.67;93.40;92375.38;4843040;29;20050;-61
2021/12/08 08:49:42;;;;;;;13.68;6.45;;;;;;;0.55;93.77;92383.91;4843307;29;20496;-61
2021/12/08 08:52:22;;;;;;;13.35;6.80;;;;;;;0.66;93.45;92381.16;4842580;29;20551;-61
2021/12/08 08:54:52;;;;;;;193.90;72.95;;;;;;;0.61;93.32;92387.75;4843073;29;20045;-61
2021/12/08 08:57:28;;;;;;;46.13;17.77;;;;;;;0.75;93.61;92384.22;4842298;29;20187;-61
2021/12/08 09:00:05;;;;;;;26.48;13.30;;;;;;;0.76;93.29;92383.81;4843227;29;20137;-61
2021/12/08 09:02:37;;;;;;;15.13;7.88;;;;;;;0.67;92.88;92382.72;4842001;29;20633;-61
2021/12/08 09:05:16;;;;;;;17.60;8.75;;;;;;;0.68;93.68;92385.00;4842580;29;20053;-60
2021/12/08 09:08:07;;;;;;;15.90;7.43;;;;;;;0.74;93.02;92379.97;4842558;29;20081;-60
2021/12/08 09:10:41;;;;;;;11.53;5.87;;;;;;;0.66;92.90;92373.81;4842754;29;20056;-61
2021/12/08 09:13:14;;;;;;;11.00;5.82;;;;;;;0.60;93.51;92378.09;4842302;29;20046;-62
2021/12/08 09:15:46;;;;;;;16.10;8.18;;;;;;;0.66;93.48;92378.47;4827852;29;20050;-61
2021/12/08 09:18:23;;;;;;;13.93;7.30;;;;;;;0.79;92.98;92383.06;4812867;29;20069;-63
2021/12/08 09:20:59;;;;;;;16.35;6.65;;;;;;;0.83;92.64;92376.88;4824189;29;20066;-61
2021/12/08 09:23:36;;;;;;;12.43;5.43;;;;;;;0.58;93.62;92367.69;4837206;29;20846;-61
2021/12/08 09:26:09;;;;;;;10.18;4.85;;;;;;;0.55;93.72;92367.72;4823943;29;20412;-60
2021/12/08 09:28:51;;;;;;;10.15;4.75;;;;;;;0.46;94.31;92378.13;4838307;29;20046;-61
2021/12/08 09:31:25;;;;;;;10.55;4.70;;;;;;;0.60;94.08;92380.78;4823489;29;20050;-61
2021/12/08 09:33:55;;;;;;;17.52;9.07;;;;;;;0.78;93.56;92383.44;4824120;29;20051;-61
2021/12/08 09:36:28;;;;;;;15.57;7.93;;;;;;;0.86;93.17;92390.34;4823665;29;20206;-61
2021/12/08 09:39:06;;;;;;;15.50;7.28;;;;;;;0.98;92.77;92386.44;4824322;29;20437;-61
2021/12/08 09:41:44;;;;;;;27.85;13.50;;;;;;;1.13;92.33;92389.88;4823208;29;20042;-62
2021/12/08 09:44:29;;;;;;;16.90;7.63;;;;;;;0.94;91.59;92391.09;4823191;29;20067;-61
2021/12/08 09:46:56;;;;;;;20.20;8.95;;;;;;;0.84;92.27;92400.00;4823771;29;20054;-61
2021/12/08 09:49:25;;;;;;;15.77;7.90;;;;;;;0.94;92.33;92410.00;4824879;29;20139;-61
2021/12/08 09:51:54;;;;;;;18.80;9.48;;;;;;;0.95;92.11;92398.81;4842257;29;20065;-62
2021/12/08 09:54:22;;;;;;;17.58;7.88;;;;;;;0.82;92.53;92394.22;4841083;29;20050;-61
2021/12/08 09:56:50;;;;;;;15.60;7.60;;;;;;;0.79;92.53;92387.69;4841572;29;20068;-61
2021/12/08 09:59:19;;;;;;;14.30;7.60;;;;;;;1.09;92.30;92375.63;4841498;29;20050;-61
2021/12/08 10:01:48;;;;;;;18.60;10.13;;;;;;;1.26;91.17;92373.97;4842057;29;20407;-61
2021/12/08 10:04:15;;;;;;;24.40;13.23;;;;;;;1.31;90.95;92371.63;4841380;29;20079;-61
2021/12/08 10:06:49;;;;;;;28.38;11.65;;;;;;;1.34;90.43;92353.84;4841463;29;20058;-61
2021/12/08 10:09:20;;;;;;;21.67;9.48;;;;;;;1.24;90.79;92351.97;4841413;29;20076;-61
2021/12/08 10:11:48;;;;;;;20.73;9.95;;;;;;;1.46;90.08;92344.53;4841794;29;20050;-61
2021/12/08 10:14:15;;;;;;;23.20;10.67;;;;;;;1.57;89.23;92335.19;4841290;29;20046;-61
2021/12/08 10:16:42;;;;;;;25.50;10.25;;;;;;;1.59;89.13;92332.84;4807546;29;20053;-61
2021/12/08 10:19:14;;;;;;;30.88;12.27;;;;;;;1.52;89.24;92335.59;4819011;29;20057;-61
2021/12/08 10:21:42;;;;;;;49.13;17.17;;;;;;;1.60;89.14;92320.09;4823272;29;20046;-61
2021/12/08 10:24:16;;;;;;;52.22;18.23;;;;;;;1.44;89.04;92306.31;4821242;29;20046;-61
2021/12/08 10:26:45;;;;;;;57.60;20.37;;;;;;;1.57;89.12;92288.41;4823200;29;20042;-61
2021/12/08 10:29:13;;;;;;;45.08;18.15;;;;;;;1.70;88.48;92292.19;4822642;29;20063;-61
2021/12/08 10:31:47;;;;;;;55.17;18.88;;;;;;;1.84;88.63;92298.66;4823280;29;20066;-61
2021/12/08 10:34:23;;;;;;;27.75;12.48;;;;;;;1.51;88.64;92293.50;4822499;29;20057;-61
2021/12/08 10:36:59;;;;;;;20.35;10.38;;;;;;;1.23;90.36;92293.69;4823054;29;20057;-61
2021/12/08 10:39:47;;;;;;;26.70;13.00;;;;;;;1.46;90.62;92285.03;4822425;29;21511;-61
2021/12/08 10:42:22;;;;;;;20.33;9.63;;;;;;;1.74;89.68;92290.22;4822730;29;20050;-61
2021/12/08 10:47:29;;;;;;;20.85;10.98;;;;;;;1.87;88.05;92295.94;4822042;29;20507;-61
2021/12/08 10:55:37;;;;;;;17.15;8.20;;;;;;;2.17;87.49;92276.31;4840135;29;20846;-61
2021/12/08 10:58:04;;;;;;;18.98;9.52;;;;;;;2.01;86.95;92270.66;4840126;29;20076;-60
2021/12/08 11:00:37;;;;;;;21.15;8.27;;;;;;;2.12;86.24;92262.44;4840954;29;20050;-61
2021/12/08 11:03:07;;;;;;;15.23;7.80;;;;;;;2.08;86.56;92259.78;4840655;29;20083;-61
2021/12/08 11:05:38;;;;;;;16.63;8.97;;;;;;;2.11;86.27;92255.50;4839929;29;20069;-61
2021/12/08 11:08:29;;;;;;;16.13;8.02;;;;;;;2.23;86.29;92263.09;4840273;29;20133;-60
2021/12/08 11:11:06;;;;;;;17.75;7.60;;;;;;;2.26;86.13;92270.41;4840855;29;20050;-61
2021/12/08 11:13:37;;;;;;;18.55;9.07;;;;;;;2.01;86.25;92270.66;4839896;29;20804;-61
2021/12/08 11:16:11;;;;;;;15.73;7.07;;;;;;;2.15;86.22;92275.94;4820110;29;20102;-60
2021/12/08 11:18:40;;;;;;;17.13;7.37;;;;;;;2.15;86.00;92281.34;4804116;29;20503;-61
2021/12/08 11:21:15;;;;;;;15.40;8.13;;;;;;;2.07;86.31;92279.09;4803917;29;20071;-61
2021/12/08 11:24:12;;;;;;;11.77;5.82;;;;;;;1.62;88.03;92284.53;4803895;29;20051;-61
2021/12/08 11:26:43;;;;;;;16.33;6.55;;;;;;;1.35;88.92;92287.84;4803967;29;20123;-61
2021/12/08 11:29:12;;;;;;;16.23;7.40;;;;;;;1.43;89.21;92286.63;4803386;29;20098;-61
2021/12/08 11:31:45;;;;;;;19.20;7.60;;;;;;;1.65;89.05;92289.94;4804353;29;20050;-61
2021/12/08 11:34:17;;;;;;;18.33;8.70;;;;;;;1.68;88.53;92293.75;4802318;29;20528;-62
2021/12/08 11:36:47;;;;;;;20.67;9.73;;;;;;;1.60;88.24;92293.81;4803641;29;20043;-62
2021/12/08 11:39:18;;;;;;;27.20;11.43;;;;;;;1.37;89.35;92299.78;4803291;29;20054;-61
2021/12/08 11:41:58;;;;;;;25.42;11.25;;;;;;;1.48;89.83;92294.28;4803892;29;20051;-62
2021/12/08 11:44:28;;;;;;;28.37;10.73;;;;;;;1.49;89.53;92293.13;4816868;29;20053;-61
2021/12/08 11:47:08;;;;;;;28.90;11.43;;;;;;;1.64;88.83;92299.19;4803800;29;20066;-62
2021/12/08 11:49:45;;;;;;;30.67;11.10;;;;;;;1.67;88.77;92293.00;4808707;29;20814;-62
2021/12/08 11:52:18;;;;;;;21.80;10.20;;;;;;;1.81;88.16;92286.69;4821079;29;20061;-61
2021/12/08 11:54:56;;;;;;;21.95;10.48;;;;;;;1.87;87.37;92287.81;4821665;29;20049;-61
2021/12/08 11:57:42;;;;;;;27.30;12.63;;;;;;;1.86;87.77;92288.97;4821122;29;20042;-62
2021/12/08 12:00:14;;;;;;;21.50;10.82;;;;;;;1.91;87.36;92285.84;4821285;29;20054;-62
2021/12/08 12:02:46;;;;;;;22.40;11.77;;;;;;;1.92;87.27;92292.00;4821845;29;20054;-61
2021/12/08 12:05:19;;;;;;;22.92;11.55;;;;;;;1.84;87.35;92291.31;4823736;29;20401;-61
2021/12/08 12:07:47;;;;;;;20.50;9.18;;;;;;;1.59;87.71;92286.88;4839904;29;20046;-61
2021/12/08 12:10:18;;;;;;;24.27;11.93;;;;;;;0.98;90.65;92273.00;4839363;29;20054;-61
2021/12/08 12:12:52;;;;;;;29.95;12.60;;;;;;;1.24;90.93;92273.63;4839852;29;20068;-61
2021/12/08 12:15:21;;;;;;;26.10;12.95;;;;;;;1.60;89.53;92263.31;4828726;29;20050;-61
2021/12/08 12:17:49;;;;;;;24.85;12.82;;;;;;;1.68;88.45;92251.25;4820088;29;20050;-62
2021/12/08 12:20:24;;;;;;;27.27;13.75;;;;;;;1.85;88.24;92248.78;4821171;29;20451;-62
2021/12/08 12:23:20;;;;;;;26.40;13.60;;;;;;;1.86;87.45;92251.09;4821774;29;20081;-62
2021/12/08 12:26:06;;;;;;;26.98;13.93;;;;;;;1.76;87.65;92247.31;4820792;29;22097;-62
2021/12/08 12:29:19;;;;;;;21.85;10.88;;;;;;;1.77;87.35;92243.47;4820720;29;20243;-61
2021/12/08 12:31:56;;;;;;;23.70;9.70;;;;;;;1.83;87.01;92238.34;4818121;29;20143;-61
2021/12/08 12:34:37;;;;;;;18.98;10.00;;;;;;;1.72;87.36;92230.34;4821010;29;20054;-62
2021/12/08 12:37:31;;;;;;;21.33;10.67;;;;;;;1.62;88.33;92233.16;4835035;29;20053;-61
2021/12/08 12:40:01;;;;;;;25.58;12.25;;;;;;;1.71;87.80;92236.94;4821092;29;20134;-61
2021/12/08 12:42:43;;;;;;;29.15;13.82;;;;;;;1.72;87.63;92238.47;4820615;29;21445;-61
2021/12/08 12:45:13;;;;;;;30.15;15.35;;;;;;;1.76;87.58;92230.34;4820811;29;20065;-61
2021/12/08 12:47:42;;;;;;;36.97;16.83;;;;;;;1.65;88.03;92224.25;4821474;29;20050;-62
2021/12/08 12:50:21;;;;;;;35.97;17.60;;;;;;;1.68;87.66;92218.03;4828141;29;20049;-61
2021/12/08 12:52:55;;;;;;;38.35;16.63;;;;;;;1.68;87.33;92210.69;4839739;29;20046;-61